createdAt,value
2019-03-16T00:00:29.197Z,12.50
2019-03-16T00:02:57.320Z,12.50
2019-03-16T00:05:25.278Z,12.50
2019-03-16T00:07:53.227Z,12.50
2019-03-16T00:10:21.307Z,12.50
2019-03-16T00:12:49.217Z,12.50
2019-03-16T00:15:17.174Z,12.50
2019-03-16T00:17:45.303Z,12.50
2019-03-16T00:20:13.242Z,12.50
2019-03-16T00:22:41.174Z,12.60
2019-03-16T00:25:09.141Z,12.60
2019-03-16T00:27:37.049Z,12.60
2019-03-16T00:30:05.104Z,12.70
2019-03-16T00:32:33.064Z,12.70
2019-03-16T00:35:02.126Z,12.80
2019-03-16T00:37:30.048Z,12.80
2019-03-16T00:39:57.995Z,12.90
2019-03-16T00:42:25.971Z,12.90
2019-03-16T00:44:53.980Z,13.00
2019-03-16T00:47:21.864Z,13.00
2019-03-16T00:49:50.111Z,13.00
2019-03-16T00:52:18.133Z,13.00
2019-03-16T00:54:46.101Z,13.00
2019-03-16T00:57:14.949Z,13.00
2019-03-16T00:59:42.989Z,13.00
2019-03-16T01:02:11.060Z,13.00
2019-03-16T01:04:38.994Z,13.00
2019-03-16T01:07:06.943Z,13.00
2019-03-16T01:09:34.914Z,13.00
2019-03-16T01:12:02.983Z,12.90
2019-03-16T01:14:30.996Z,13.00
2019-03-16T01:16:59.942Z,12.90
2019-03-16T01:19:28.079Z,12.90
2019-03-16T01:21:56.143Z,12.90
2019-03-16T01:24:24.089Z,12.90
2019-03-16T01:26:52.024Z,12.80
2019-03-16T01:29:20.140Z,12.70
2019-03-16T01:31:48.068Z,12.70
2019-03-16T01:34:17.055Z,12.70
2019-03-16T01:36:44.984Z,12.60
2019-03-16T01:39:13.923Z,12.60
2019-03-16T01:41:41.809Z,12.60
2019-03-16T01:44:09.723Z,12.60
2019-03-16T01:46:37.627Z,12.60
2019-03-16T01:49:05.524Z,12.60
2019-03-16T01:51:33.476Z,12.70
2019-03-16T01:54:01.448Z,12.60
2019-03-16T01:56:29.403Z,12.70
2019-03-16T01:58:57.648Z,12.70
2019-03-16T02:01:25.615Z,12.70
2019-03-16T02:03:53.979Z,12.70
2019-03-16T02:06:22.051Z,12.80
2019-03-16T02:08:50.009Z,12.80
2019-03-16T02:11:18.120Z,12.80
2019-03-16T02:13:46.138Z,12.90
2019-03-16T02:16:14.073Z,12.90
2019-03-16T02:18:42.012Z,12.90
2019-03-16T02:21:09.964Z,12.90
2019-03-16T02:23:37.931Z,13.00
2019-03-16T02:26:06.142Z,13.00
2019-03-16T02:28:34.091Z,13.00
2019-03-16T02:31:02.195Z,13.00
2019-03-16T02:33:30.205Z,12.90
2019-03-16T02:35:58.155Z,13.00
2019-03-16T02:38:26.026Z,13.00
2019-03-16T02:40:53.942Z,13.00
2019-03-16T02:43:21.885Z,13.00
2019-03-16T02:45:50.099Z,13.00
2019-03-16T02:48:18.167Z,13.10
2019-03-16T02:50:46.087Z,13.10
2019-03-16T02:53:14.024Z,13.10
2019-03-16T02:55:41.986Z,13.20
2019-03-16T02:58:10.160Z,13.20
2019-03-16T03:00:38.147Z,13.10
2019-03-16T03:03:06.066Z,13.10
2019-03-16T03:05:34.031Z,13.10
2019-03-16T03:08:01.949Z,13.10
2019-03-16T03:10:29.883Z,13.10
2019-03-16T03:12:57.862Z,13.10
2019-03-16T03:15:25.811Z,13.10
2019-03-16T03:17:53.740Z,13.10
2019-03-16T03:20:21.737Z,13.10
2019-03-16T03:22:49.665Z,13.10
2019-03-16T03:25:17.594Z,13.10
2019-03-16T03:27:45.501Z,13.10
2019-03-16T03:30:13.471Z,13.10
2019-03-16T03:32:41.512Z,13.10
2019-03-16T03:35:09.420Z,13.10
2019-03-16T03:37:37.415Z,13.10
2019-03-16T03:40:05.302Z,13.10
2019-03-16T03:42:36.883Z,13.10
2019-03-16T03:45:06.989Z,13.10
2019-03-16T03:47:34.923Z,13.10
2019-03-16T03:50:02.840Z,13.20
2019-03-16T03:52:30.774Z,13.20
2019-03-16T03:54:59.922Z,13.20
2019-03-16T03:57:27.888Z,13.20
2019-03-16T03:59:55.847Z,13.20
2019-03-16T04:02:23.784Z,13.20
2019-03-16T04:04:51.750Z,13.20
2019-03-16T04:07:20.524Z,13.20
2019-03-16T04:09:48.712Z,13.20
2019-03-16T04:12:16.661Z,13.10
2019-03-16T04:14:44.867Z,13.10
2019-03-16T04:17:13.056Z,13.20
2019-03-16T04:19:41.406Z,13.20
2019-03-16T04:22:09.363Z,13.20
2019-03-16T04:24:37.818Z,13.20
2019-03-16T04:27:16.084Z,13.20
2019-03-16T04:29:36.381Z,13.20
2019-03-16T04:32:04.354Z,13.20
2019-03-16T04:34:32.251Z,13.20
2019-03-16T04:37:00.225Z,13.20
2019-03-16T04:39:28.580Z,13.20
2019-03-16T04:41:57.423Z,13.20
2019-03-16T04:44:26.433Z,13.10
2019-03-16T04:46:55.508Z,13.20
2019-03-16T04:49:23.427Z,13.20
2019-03-16T04:51:52.444Z,13.20
2019-03-16T04:54:20.432Z,13.10
2019-03-16T04:56:49.448Z,13.10
2019-03-16T04:59:17.873Z,13.10
2019-03-16T05:01:45.840Z,13.20
2019-03-16T05:04:13.730Z,13.10
2019-03-16T05:06:41.721Z,13.20
2019-03-16T05:09:10.725Z,13.20
2019-03-16T05:11:38.662Z,13.10
2019-03-16T05:14:06.610Z,13.10
2019-03-16T05:16:34.631Z,13.10
2019-03-16T05:19:02.757Z,13.10
2019-03-16T05:21:30.706Z,13.20
2019-03-16T05:23:58.674Z,13.20
2019-03-16T05:26:26.902Z,13.20
2019-03-16T05:28:54.879Z,13.20
2019-03-16T05:31:22.863Z,13.20
2019-03-16T05:33:50.801Z,13.20
2019-03-16T05:36:18.803Z,13.20
2019-03-16T05:38:46.762Z,13.20
2019-03-16T05:41:14.910Z,13.20
2019-03-16T05:43:42.849Z,13.20
2019-03-16T05:46:11.908Z,13.20
2019-03-16T05:48:39.798Z,13.20
2019-03-16T05:51:07.788Z,13.20
2019-03-16T05:53:35.826Z,13.20
2019-03-16T05:56:03.750Z,13.20
2019-03-16T05:58:32.004Z,13.10
2019-03-16T06:01:00.208Z,13.10
2019-03-16T06:03:28.107Z,13.00
2019-03-16T06:05:56.148Z,13.00
2019-03-16T06:08:24.125Z,12.90
2019-03-16T06:10:52.151Z,12.90
2019-03-16T06:13:20.157Z,12.80
2019-03-16T06:15:48.070Z,12.80
2019-03-16T06:18:15.973Z,12.80
2019-03-16T06:20:44.130Z,12.70
2019-03-16T06:23:12.050Z,12.70
2019-03-16T06:25:40.233Z,12.70
2019-03-16T06:28:08.925Z,12.70
2019-03-16T06:30:36.910Z,12.70
2019-03-16T06:33:04.823Z,12.70
2019-03-16T06:35:32.734Z,12.80
2019-03-16T06:38:00.675Z,12.80
2019-03-16T06:40:28.567Z,12.80
2019-03-16T06:42:56.550Z,12.90
2019-03-16T06:45:24.647Z,13.00
2019-03-16T06:47:54.793Z,13.10
2019-03-16T06:50:22.148Z,13.10
2019-03-16T06:52:50.069Z,13.20
2019-03-16T06:55:18.017Z,13.30
2019-03-16T06:57:45.956Z,13.40
2019-03-16T07:00:13.865Z,13.50
2019-03-16T07:02:42.000Z,13.60
2019-03-16T07:05:11.039Z,13.60
2019-03-16T07:07:38.952Z,13.60
2019-03-16T07:10:06.845Z,13.70
2019-03-16T07:12:35.200Z,13.90
2019-03-16T07:15:03.237Z,14.00
2019-03-16T07:17:31.210Z,14.10
2019-03-16T07:19:59.453Z,14.20
2019-03-16T07:22:27.383Z,14.40
2019-03-16T07:24:55.332Z,14.50
2019-03-16T07:27:26.314Z,14.60
2019-03-16T07:29:53.597Z,14.70
2019-03-16T07:32:21.498Z,14.80
2019-03-16T07:34:49.589Z,14.90
2019-03-16T07:37:17.479Z,15.00
2019-03-16T07:39:45.490Z,15.00
2019-03-16T07:42:14.596Z,15.10
2019-03-16T07:44:42.616Z,15.20
2019-03-16T07:47:10.542Z,15.40
2019-03-16T07:49:39.103Z,15.60
2019-03-16T07:52:07.152Z,15.70
2019-03-16T07:54:38.407Z,15.80
2019-03-16T07:57:06.350Z,15.80
2019-03-16T07:59:36.964Z,15.80
2019-03-16T08:02:04.037Z,16.00
2019-03-16T08:04:32.020Z,16.20
2019-03-16T08:07:01.089Z,16.20
2019-03-16T08:09:29.133Z,16.10
2019-03-16T08:11:57.268Z,16.20
2019-03-16T08:14:25.202Z,16.20
2019-03-16T08:16:53.255Z,16.10
2019-03-16T08:19:21.194Z,16.20
2019-03-16T08:21:49.083Z,16.40
2019-03-16T08:24:17.005Z,16.50
2019-03-16T08:26:44.923Z,16.80
2019-03-16T08:29:12.882Z,17.00
2019-03-16T08:31:40.771Z,17.30
2019-03-16T08:34:08.705Z,17.40
2019-03-16T08:36:36.563Z,17.60
2019-03-16T08:39:05.556Z,18.10
2019-03-16T08:41:33.855Z,18.80
2019-03-16T08:44:02.537Z,19.40
2019-03-16T08:46:30.379Z,20.20
2019-03-16T08:48:58.726Z,20.80
2019-03-16T08:51:26.754Z,21.30
2019-03-16T08:53:55.011Z,21.90
2019-03-16T08:56:22.988Z,22.40
2019-03-16T08:58:51.228Z,22.70
2019-03-16T09:01:19.162Z,22.70
2019-03-16T09:03:47.363Z,22.80
2019-03-16T09:06:15.285Z,22.90
2019-03-16T09:08:43.241Z,23.00
2019-03-16T09:11:11.143Z,23.10
2019-03-16T09:13:39.076Z,23.30
2019-03-16T09:16:07.015Z,23.70
2019-03-16T09:18:34.951Z,23.80
2019-03-16T09:21:02.854Z,24.20
2019-03-16T09:23:30.788Z,24.30
2019-03-16T09:25:58.848Z,24.80
2019-03-16T09:28:26.791Z,25.30
2019-03-16T09:30:56.512Z,25.80
2019-03-16T09:33:24.628Z,25.70
2019-03-16T09:35:52.671Z,25.80
2019-03-16T09:38:20.648Z,25.80
2019-03-16T09:40:48.980Z,26.00
2019-03-16T09:43:16.939Z,26.00
2019-03-16T09:45:45.006Z,26.20
2019-03-16T09:48:12.922Z,26.30
2019-03-16T09:50:40.868Z,26.20
2019-03-16T09:53:08.841Z,25.90
2019-03-16T09:55:36.786Z,25.30
2019-03-16T09:58:04.972Z,24.30
2019-03-16T10:00:32.902Z,23.60
2019-03-16T10:03:00.835Z,22.90
2019-03-16T10:05:28.722Z,22.50
2019-03-16T10:07:56.684Z,22.20
2019-03-16T10:10:24.907Z,21.70
2019-03-16T10:12:52.843Z,21.40
2019-03-16T10:16:59.348Z,21.20
2019-03-16T10:19:29.740Z,20.90
2019-03-16T10:22:01.464Z,20.80
2019-03-16T10:24:34.021Z,20.60
2019-03-16T10:27:04.445Z,20.40
2019-03-16T10:29:34.648Z,20.30
2019-03-16T10:32:04.823Z,20.30
2019-03-16T10:34:35.173Z,20.30
2019-03-16T10:37:05.763Z,20.30
2019-03-16T10:39:36.634Z,20.00
2019-03-16T10:42:07.468Z,19.90
2019-03-16T10:44:37.939Z,19.70
2019-03-16T10:47:08.398Z,19.60
2019-03-16T10:49:40.848Z,19.60
2019-03-16T10:52:10.993Z,19.70
2019-03-16T10:54:41.236Z,19.70
2019-03-16T10:57:12.441Z,19.70
2019-03-16T10:59:42.700Z,19.60
2019-03-16T11:02:12.932Z,19.50
2019-03-16T11:04:43.259Z,19.50
2019-03-16T11:07:13.530Z,19.70
2019-03-16T11:09:43.663Z,19.70
2019-03-16T11:12:13.788Z,19.50
2019-03-16T11:14:44.458Z,19.40
2019-03-16T11:17:17.356Z,19.00
2019-03-16T11:19:47.607Z,18.80
2019-03-16T11:22:37.106Z,18.70
2019-03-16T11:25:07.466Z,18.40
2019-03-16T11:27:39.127Z,18.40
2019-03-16T11:30:10.801Z,18.70
2019-03-16T11:32:41.243Z,18.90
2019-03-16T11:35:12.625Z,19.00
2019-03-16T11:37:43.188Z,19.00
2019-03-16T11:40:14.577Z,19.00
2019-03-16T11:42:46.105Z,19.00
2019-03-16T11:45:17.299Z,19.00
2019-03-16T11:47:48.270Z,19.20
2019-03-16T11:50:18.728Z,18.90
2019-03-16T11:52:48.904Z,18.90
2019-03-16T11:55:19.325Z,19.00
2019-03-16T11:57:49.790Z,19.10
2019-03-16T12:00:20.328Z,19.00
2019-03-16T12:02:52.877Z,18.90
2019-03-16T12:05:23.429Z,18.80
2019-03-16T12:07:53.721Z,18.80
2019-03-16T12:10:24.053Z,18.60
2019-03-16T12:12:54.270Z,18.50
2019-03-16T12:15:25.035Z,18.40
2019-03-16T12:17:55.234Z,18.50
2019-03-16T12:20:26.223Z,18.60
2019-03-16T12:22:56.969Z,18.70
2019-03-16T12:25:27.995Z,18.90
2019-03-16T12:27:58.249Z,19.00
2019-03-16T12:30:28.777Z,19.20
2019-03-16T12:32:59.573Z,19.40
2019-03-16T12:35:30.388Z,19.50
2019-03-16T12:38:00.713Z,19.60
2019-03-16T12:40:31.031Z,19.80
2019-03-16T12:43:01.458Z,19.80
2019-03-16T12:45:33.069Z,19.80
2019-03-16T12:48:03.389Z,19.70
2019-03-16T12:50:36.462Z,19.60
2019-03-16T12:53:06.944Z,19.50
2019-03-16T12:55:37.863Z,19.60
2019-03-16T12:58:08.111Z,19.60
2019-03-16T13:00:38.390Z,19.70
2019-03-16T13:03:08.550Z,19.80
2019-03-16T13:05:38.934Z,19.80
2019-03-16T13:08:09.341Z,20.00
2019-03-16T13:10:40.226Z,20.20
2019-03-16T13:13:10.470Z,20.30
2019-03-16T13:15:40.950Z,20.30
2019-03-16T13:18:11.807Z,20.20
2019-03-16T13:20:42.963Z,20.30
2019-03-16T13:23:13.230Z,20.20
2019-03-16T13:25:43.541Z,19.90
2019-03-16T13:28:13.707Z,19.60
2019-03-16T13:30:44.689Z,19.30
2019-03-16T13:33:15.022Z,19.30
2019-03-16T13:36:06.661Z,19.30
2019-03-16T13:38:38.071Z,19.20
2019-03-16T13:41:08.495Z,19.20
2019-03-16T13:43:38.670Z,19.20
2019-03-16T13:46:09.001Z,19.30
2019-03-16T13:48:40.721Z,19.10
2019-03-16T13:51:12.358Z,18.90
2019-03-16T13:53:43.187Z,18.90
2019-03-16T13:56:13.357Z,18.90
2019-03-16T13:58:46.590Z,18.80
2019-03-16T14:01:16.841Z,18.70
2019-03-16T14:03:47.399Z,18.50
2019-03-16T14:06:18.320Z,18.30
2019-03-16T14:08:49.081Z,18.30
2019-03-16T14:11:19.288Z,18.10
2019-03-16T14:13:49.506Z,17.90
2019-03-16T14:16:20.333Z,17.80
2019-03-16T14:18:50.739Z,17.60
2019-03-16T14:21:24.089Z,17.60
2019-03-16T14:23:54.470Z,17.70
2019-03-16T14:26:25.793Z,17.70
2019-03-16T14:28:56.174Z,17.50
2019-03-16T14:31:26.483Z,17.70
2019-03-16T14:33:59.132Z,17.70
2019-03-16T14:36:29.319Z,17.80
2019-03-16T14:38:59.479Z,18.00
2019-03-16T14:41:29.853Z,17.90
2019-03-16T14:44:00.436Z,17.80
2019-03-16T14:46:31.910Z,17.90
2019-03-16T14:49:02.352Z,18.10
2019-03-16T14:51:32.683Z,18.30
2019-03-16T14:54:02.832Z,18.50
2019-03-16T14:56:33.306Z,18.90
2019-03-16T14:59:03.710Z,19.00
2019-03-16T15:01:33.818Z,19.20
2019-03-16T15:04:04.084Z,19.30
2019-03-16T15:06:34.359Z,19.30
2019-03-16T15:09:05.707Z,19.60
2019-03-16T15:11:36.669Z,19.90
2019-03-16T15:14:06.927Z,19.80
2019-03-16T15:16:38.474Z,20.00
2019-03-16T15:19:09.675Z,20.30
2019-03-16T15:21:39.868Z,20.10
2019-03-16T15:24:10.202Z,19.60
2019-03-16T15:26:41.479Z,19.80
2019-03-16T15:29:11.747Z,19.80
2019-03-16T15:31:43.944Z,19.90
2019-03-16T15:34:14.323Z,19.90
2019-03-16T15:36:56.160Z,20.00
2019-03-16T15:39:26.313Z,20.00
2019-03-16T15:41:56.659Z,20.10
2019-03-16T15:44:26.871Z,20.00
2019-03-16T15:46:58.105Z,20.00
2019-03-16T15:49:29.204Z,19.90
2019-03-16T15:52:00.743Z,19.90
2019-03-16T15:54:31.101Z,19.70
2019-03-16T15:57:01.725Z,19.70
2019-03-16T15:59:32.972Z,19.80
2019-03-16T16:02:03.538Z,19.90
2019-03-16T16:04:34.119Z,19.90
2019-03-16T16:07:04.764Z,20.00
2019-03-16T16:09:35.122Z,20.40
2019-03-16T16:12:06.070Z,20.90
2019-03-16T16:14:36.579Z,21.30
2019-03-16T16:17:08.653Z,21.00
2019-03-16T16:19:39.266Z,20.70
2019-03-16T16:22:09.580Z,20.30
2019-03-16T16:24:41.658Z,19.80
2019-03-16T16:27:18.604Z,19.30
2019-03-16T16:29:48.966Z,18.90
2019-03-16T16:32:19.586Z,18.70
2019-03-16T16:34:53.028Z,18.40
2019-03-16T16:37:24.133Z,18.20
2019-03-16T16:39:54.988Z,18.00
2019-03-16T16:42:25.844Z,18.00
2019-03-16T16:44:56.018Z,17.90
2019-03-16T16:47:28.232Z,17.80
2019-03-16T16:49:58.920Z,17.70
2019-03-16T16:52:29.893Z,17.60
2019-03-16T16:55:00.685Z,17.60
2019-03-16T16:57:31.245Z,17.50
2019-03-16T17:00:02.491Z,17.50
2019-03-16T17:02:36.729Z,17.40
2019-03-16T17:05:12.868Z,17.50
2019-03-16T17:07:44.317Z,17.50
2019-03-16T17:10:16.890Z,17.40
2019-03-16T17:12:47.358Z,17.40
2019-03-16T17:15:17.777Z,17.40
2019-03-16T17:17:48.121Z,17.50
2019-03-16T17:20:18.927Z,17.30
2019-03-16T17:22:49.244Z,17.20
2019-03-16T17:25:19.636Z,17.30
2019-03-16T17:27:55.779Z,17.30
2019-03-16T17:30:30.388Z,17.20
2019-03-16T17:33:00.773Z,17.20
2019-03-16T17:35:31.257Z,17.10
2019-03-16T17:38:11.110Z,17.10
2019-03-16T17:40:41.298Z,17.10
2019-03-16T17:43:12.701Z,17.00
2019-03-16T17:45:43.374Z,17.00
2019-03-16T17:48:14.732Z,17.00
2019-03-16T17:50:45.119Z,17.00
2019-03-16T17:53:15.539Z,16.90
2019-03-16T17:55:45.952Z,16.80
2019-03-16T17:58:16.124Z,16.80
2019-03-16T18:00:46.566Z,16.70
2019-03-16T18:03:16.992Z,16.70
2019-03-16T18:05:47.219Z,16.60
2019-03-16T18:08:17.411Z,16.50
2019-03-16T18:10:47.612Z,16.60
2019-03-16T18:13:17.957Z,16.70
2019-03-16T18:15:48.322Z,16.50
2019-03-16T18:18:18.469Z,16.40
2019-03-16T18:20:49.183Z,16.30
2019-03-16T18:23:19.603Z,16.20
2019-03-16T18:25:50.003Z,16.10
2019-03-16T18:28:20.435Z,16.00
2019-03-16T18:30:50.780Z,16.00
2019-03-16T18:33:24.259Z,16.00
2019-03-16T18:35:54.820Z,16.10
2019-03-16T18:38:25.068Z,16.10
2019-03-16T18:40:55.431Z,16.10
2019-03-16T18:43:33.685Z,16.20
2019-03-16T18:46:04.061Z,16.20
2019-03-16T18:48:34.414Z,16.30
2019-03-16T18:51:04.805Z,16.40
2019-03-16T18:53:35.046Z,16.50
2019-03-16T18:56:05.346Z,16.50
2019-03-16T18:58:37.850Z,16.50
2019-03-16T19:01:07.594Z,16.60
2019-03-16T19:03:37.768Z,16.60
2019-03-16T19:06:07.927Z,16.50
2019-03-16T19:08:38.215Z,16.60
2019-03-16T19:11:08.580Z,16.70
2019-03-16T19:13:38.728Z,16.70
2019-03-16T19:16:09.028Z,16.70
2019-03-16T19:18:39.394Z,16.80
2019-03-16T19:21:12.693Z,16.80
2019-03-16T19:23:42.906Z,16.80
2019-03-16T19:26:13.168Z,16.80
2019-03-16T19:28:43.365Z,16.90
2019-03-16T19:31:13.797Z,16.90
2019-03-16T19:33:44.516Z,16.90
2019-03-16T19:36:16.954Z,17.00
2019-03-16T19:38:46.775Z,17.00
2019-03-16T19:41:17.074Z,17.00
2019-03-16T19:43:50.226Z,17.10
2019-03-16T19:46:20.050Z,17.10
2019-03-16T19:48:50.311Z,17.20
2019-03-16T19:51:20.520Z,17.10
2019-03-16T19:53:50.773Z,17.20
2019-03-16T19:56:21.335Z,17.20
2019-03-16T19:59:00.457Z,17.20
2019-03-16T20:01:23.741Z,17.20
2019-03-16T20:03:54.039Z,17.20
2019-03-16T20:06:26.143Z,17.20
2019-03-16T20:08:57.216Z,17.20
2019-03-16T20:11:27.514Z,17.30
2019-03-16T20:13:58.024Z,17.40
2019-03-16T20:16:28.517Z,17.40
2019-03-16T20:18:58.989Z,17.30
2019-03-16T20:21:29.502Z,17.20
2019-03-16T20:23:59.809Z,17.10
2019-03-16T20:26:29.971Z,16.90
2019-03-16T20:29:00.129Z,16.60
2019-03-16T20:31:30.471Z,16.40
2019-03-16T20:34:02.006Z,16.20
2019-03-16T20:36:32.435Z,16.10
2019-03-16T20:39:02.855Z,16.00
2019-03-16T20:41:36.366Z,15.90
2019-03-16T20:44:08.444Z,15.80
2019-03-16T20:46:39.189Z,15.70
2019-03-16T20:49:10.418Z,15.60
2019-03-16T20:51:40.729Z,15.50
2019-03-16T20:54:11.186Z,15.50
2019-03-16T20:56:41.896Z,15.40
2019-03-16T20:59:12.172Z,15.40
2019-03-16T21:01:42.589Z,15.40
2019-03-16T21:04:13.411Z,15.70
2019-03-16T21:06:43.822Z,16.00
2019-03-16T21:09:16.913Z,16.20
2019-03-16T21:11:49.438Z,16.30
2019-03-16T21:14:20.619Z,16.40
2019-03-16T21:16:50.813Z,16.50
2019-03-16T21:19:21.355Z,16.50
2019-03-16T21:21:51.605Z,16.60
2019-03-16T21:24:21.916Z,16.60
2019-03-16T21:26:53.027Z,16.60
2019-03-16T21:29:26.317Z,16.70
2019-03-16T21:31:55.828Z,16.80
2019-03-16T21:34:26.583Z,16.90
2019-03-16T21:36:56.846Z,17.00
2019-03-16T21:39:27.834Z,17.10
2019-03-16T21:41:58.697Z,17.10
2019-03-16T21:44:29.408Z,17.20
2019-03-16T21:46:59.993Z,17.30
2019-03-16T21:49:30.627Z,17.30
2019-03-16T21:52:02.869Z,17.30
2019-03-16T21:54:32.903Z,17.30
2019-03-16T21:57:04.046Z,17.30
2019-03-16T21:59:34.888Z,17.30
2019-03-16T22:02:05.182Z,17.30
2019-03-16T22:04:35.824Z,17.40
2019-03-16T22:07:06.710Z,17.30
2019-03-16T22:09:37.511Z,17.40
2019-03-16T22:12:08.740Z,17.40
2019-03-16T22:14:39.082Z,17.40
2019-03-16T22:17:09.260Z,17.30
2019-03-16T22:19:39.471Z,17.30
2019-03-16T22:22:09.769Z,17.30
2019-03-16T22:24:40.772Z,17.30
2019-03-16T22:27:10.940Z,17.30
2019-03-16T22:29:42.257Z,17.30
2019-03-16T22:32:12.628Z,17.30
2019-03-16T22:34:42.949Z,17.30
2019-03-16T22:37:13.062Z,17.30
2019-03-16T22:39:43.482Z,17.30
2019-03-16T22:42:13.687Z,17.20
2019-03-16T22:44:44.004Z,17.20
2019-03-16T22:47:14.298Z,17.20
2019-03-16T22:49:44.508Z,17.20
2019-03-16T22:52:14.824Z,17.20
2019-03-16T22:54:45.245Z,17.20
2019-03-16T22:57:15.409Z,17.20
2019-03-16T22:59:45.701Z,17.20
2019-03-16T23:02:16.574Z,17.10
2019-03-16T23:04:46.701Z,17.10
2019-03-16T23:07:18.112Z,17.10
2019-03-16T23:09:48.380Z,17.00
2019-03-16T23:12:19.447Z,17.00
2019-03-16T23:14:50.091Z,17.00
2019-03-16T23:17:20.239Z,17.10
2019-03-16T23:19:50.590Z,17.10
2019-03-16T23:22:21.968Z,17.10
2019-03-16T23:24:52.203Z,17.00
2019-03-16T23:27:32.205Z,17.00
2019-03-16T23:30:02.572Z,16.90
2019-03-16T23:32:32.875Z,16.90
2019-03-16T23:35:03.316Z,16.90
2019-03-16T23:37:33.986Z,16.90
2019-03-16T23:40:04.589Z,16.80
2019-03-16T23:42:34.813Z,16.80
2019-03-16T23:45:05.580Z,16.80
2019-03-16T23:47:36.885Z,16.80
2019-03-16T23:50:08.243Z,16.80
2019-03-16T23:52:48.009Z,16.70
2019-03-16T23:55:18.539Z,16.70
2019-03-16T23:57:48.776Z,16.60
